Time;durP1;ratioP1;P1;durP2;ratioP2;P2;SDS_P1;SDS_P2;PMS_P1;PMS_P2;Temp;Humidity;BMP_temperature;BMP_pressure;BME280_temperature;BME280_humidity;BME280_pressure;Samples;Min_cycle;Max_cycle;Signal;HPM_P1;HPM_P2
2022/10/20 00:02:25;;;;;;;3.63;1.98;;;3.20;99.90;;;;;;5005637;28;20046;-53
2022/10/20 00:04:50;;;;;;;5.75;1.98;;;3.20;99.90;;;;;;5025584;28;20030;-52
2022/10/20 00:07:16;;;;;;;4.60;2.15;;;3.30;99.90;;;;;;5011177;28;20076;-55
2022/10/20 00:09:41;;;;;;;4.00;1.85;;;3.30;99.90;;;;;;5025246;28;20033;-53
2022/10/20 00:12:07;;;;;;;5.18;1.90;;;3.30;99.90;;;;;;5010680;28;20080;-54
2022/10/20 00:14:32;;;;;;;3.97;2.20;;;3.30;99.90;;;;;;5021756;28;20420;-54
2022/10/20 00:17:00;;;;;;;3.35;2.13;;;3.30;99.90;;;;;;5023458;28;20060;-54
2022/10/20 00:19:26;;;;;;;3.65;1.83;;;3.30;99.90;;;;;;5006825;28;20026;-55
2022/10/20 00:21:52;;;;;;;3.95;1.95;;;3.20;99.90;;;;;;5023404;28;20042;-55
2022/10/20 00:24:20;;;;;;;5.10;1.80;;;3.20;99.90;;;;;;5022899;28;20048;-56
2022/10/20 00:26:46;;;;;;;4.53;2.30;;;3.10;99.90;;;;;;5015737;28;20029;-55
2022/10/20 00:29:11;;;;;;;3.38;2.33;;;3.10;99.90;;;;;;5008620;28;20030;-56
2022/10/20 00:31:37;;;;;;;5.88;2.22;;;3.10;99.90;;;;;;5018469;28;20091;-55
2022/10/20 00:34:02;;;;;;;6.60;2.95;;;3.00;99.90;;;;;;5009055;28;20033;-55
2022/10/20 00:36:28;;;;;;;5.03;2.30;;;3.00;99.90;;;;;;5025766;28;20467;-56
2022/10/20 00:39:02;;;;;;;3.30;2.33;;;3.00;99.90;;;;;;5028747;28;20032;-57
2022/10/20 00:41:28;;;;;;;4.25;2.22;;;3.00;99.90;;;;;;5012890;28;20025;-57
2022/10/20 00:43:56;;;;;;;3.35;1.83;;;3.00;99.90;;;;;;5028698;28;20025;-56
2022/10/20 00:46:25;;;;;;;4.68;2.55;;;3.00;99.90;;;;;;5011803;28;20029;-56
2022/10/20 00:48:56;;;;;;;5.90;2.30;;;3.00;99.90;;;;;;5028580;28;20021;-54
2022/10/20 00:51:25;;;;;;;3.10;1.90;;;3.00;99.90;;;;;;4996750;28;20025;-57
2022/10/20 00:53:54;;;;;;;4.05;1.98;;;2.90;99.90;;;;;;5028532;28;20542;-55
2022/10/20 00:56:21;;;;;;;3.58;2.28;;;2.90;99.90;;;;;;5011138;28;20112;-57
2022/10/20 00:58:47;;;;;;;6.53;2.15;;;2.90;99.90;;;;;;5031260;28;20452;-57
2022/10/20 01:01:13;;;;;;;4.90;2.10;;;2.80;99.90;;;;;;5014060;28;20124;-56
2022/10/20 01:03:45;;;;;;;4.30;2.50;;;2.80;99.90;;;;;;5032282;28;20032;-54
2022/10/20 01:06:13;;;;;;;3.60;1.90;;;2.80;99.90;;;;;;4996758;28;20404;-54
2022/10/20 01:08:39;;;;;;;12.65;2.28;;;2.70;99.90;;;;;;5032267;28;20033;-54
2022/10/20 01:11:12;;;;;;;4.70;2.13;;;2.70;99.90;;;;;;5012835;28;20041;-57
2022/10/20 01:14:15;;;;;;;2.85;1.85;;;2.70;99.90;;;;;;5032152;28;20719;-57
2022/10/20 01:16:48;;;;;;;3.58;2.10;;;2.70;99.90;;;;;;4979330;28;20053;-56
2022/10/20 01:19:51;;;;;;;2.95;1.85;;;2.60;99.90;;;;;;5012300;28;20092;-55
2022/10/20 01:22:35;;;;;;;4.05;3.05;;;2.60;99.90;;;;;;5017869;28;20037;-56
2022/10/20 01:25:17;;;;;;;5.07;2.10;;;2.60;99.90;;;;;;4989727;28;20037;-56
2022/10/20 01:27:55;;;;;;;4.47;2.17;;;2.60;99.90;;;;;;5005516;28;20036;-57
2022/10/20 01:30:22;;;;;;;2.75;1.88;;;2.60;99.90;;;;;;4992466;28;20033;-55
2022/10/20 01:33:05;;;;;;;5.40;1.83;;;2.60;99.90;;;;;;5013678;28;20127;-57
2022/10/20 01:35:39;;;;;;;3.58;2.03;;;2.60;99.90;;;;;;4992299;28;20474;-57
2022/10/20 01:38:28;;;;;;;5.75;2.17;;;2.50;99.90;;;;;;5007698;28;20081;-57
2022/10/20 01:41:03;;;;;;;3.92;2.15;;;2.50;99.90;;;;;;4992225;28;20373;-54
2022/10/20 01:43:34;;;;;;;5.55;2.72;;;2.40;99.90;;;;;;4992247;28;20033;-56
2022/10/20 01:46:00;;;;;;;5.80;2.50;;;2.40;99.90;;;;;;4990543;28;20119;-57
2022/10/20 01:48:31;;;;;;;3.13;2.40;;;2.40;99.90;;;;;;5030066;28;20040;-53
2022/10/20 01:50:58;;;;;;;5.05;2.20;;;2.40;99.90;;;;;;4990011;28;20033;-57
2022/10/20 01:53:24;;;;;;;4.57;2.65;;;2.40;99.90;;;;;;5028633;28;20137;-57
2022/10/20 01:55:52;;;;;;;5.93;2.60;;;2.50;99.90;;;;;;5011882;28;20508;-57
2022/10/20 01:58:50;;;;;;;5.15;2.67;;;2.50;99.90;;;;;;5010364;28;20180;-57
2022/10/20 02:01:47;;;;;;;4.00;2.38;;;2.50;99.90;;;;;;4993521;28;20042;-56
2022/10/20 02:04:13;;;;;;;4.10;2.28;;;2.50;99.90;;;;;;5031144;28;20049;-58
2022/10/20 02:06:57;;;;;;;5.15;2.50;;;2.50;99.90;;;;;;5014615;28;20041;-54
2022/10/20 02:09:38;;;;;;;6.47;2.50;;;2.50;99.90;;;;;;5030947;28;20036;-51
2022/10/20 02:12:08;;;;;;;5.38;2.60;;;2.60;99.90;;;;;;5005779;28;20068;-55
2022/10/20 02:14:35;;;;;;;4.53;2.65;;;2.60;99.90;;;;;;4991576;28;20054;-55
2022/10/20 02:17:05;;;;;;;6.07;2.95;;;2.50;99.90;;;;;;5027796;28;20045;-52
2022/10/20 02:19:37;;;;;;;3.95;2.47;;;2.50;99.90;;;;;;5030960;28;20029;-55
2022/10/20 02:22:05;;;;;;;5.70;2.85;;;2.60;99.90;;;;;;5004729;28;20045;-53
2022/10/20 02:24:35;;;;;;;6.70;3.05;;;2.60;99.90;;;;;;5010728;28;20038;-56
2022/10/20 02:27:07;;;;;;;5.03;3.03;;;2.70;99.90;;;;;;5028697;28;20087;-55
2022/10/20 02:29:38;;;;;;;4.03;2.47;;;2.70;99.90;;;;;;5030537;28;20018;-57
2022/10/20 02:32:04;;;;;;;6.85;2.58;;;2.70;99.90;;;;;;5004427;28;20504;-55
2022/10/20 02:34:29;;;;;;;5.95;2.33;;;2.70;99.90;;;;;;5030497;28;20033;-50
2022/10/20 02:36:58;;;;;;;2.80;2.30;;;2.60;99.90;;;;;;5010039;28;20456;-55
2022/10/20 02:39:25;;;;;;;4.28;2.47;;;2.60;99.90;;;;;;5010761;28;20030;-55
2022/10/20 02:41:50;;;;;;;6.32;2.40;;;2.60;99.90;;;;;;5027706;28;20025;-54
2022/10/20 02:44:17;;;;;;;4.90;2.90;;;2.60;99.90;;;;;;5030371;28;20024;-55
2022/10/20 02:46:42;;;;;;;6.03;2.47;;;2.60;99.90;;;;;;5013215;28;20034;-54
2022/10/20 02:49:08;;;;;;;6.63;2.90;;;2.50;99.90;;;;;;5030432;28;20035;-54
2022/10/20 02:51:33;;;;;;;4.65;2.53;;;2.50;99.90;;;;;;5011791;28;20720;-54
2022/10/20 02:53:59;;;;;;;4.70;2.75;;;2.50;99.90;;;;;;5030273;28;20402;-55
2022/10/20 02:56:24;;;;;;;8.60;2.97;;;2.50;99.90;;;;;;5010489;28;20044;-56
2022/10/20 02:58:50;;;;;;;5.95;3.45;;;2.50;99.90;;;;;;5030171;28;20036;-55
2022/10/20 03:01:15;;;;;;;7.40;3.00;;;2.50;99.90;;;;;;5008829;28;20121;-53
2022/10/20 03:03:41;;;;;;;6.32;3.08;;;2.50;99.90;;;;;;5029997;28;20366;-55
2022/10/20 03:06:11;;;;;;;4.93;2.90;;;2.40;99.90;;;;;;5010631;28;20452;-56
2022/10/20 03:08:37;;;;;;;4.15;2.67;;;2.40;99.90;;;;;;5008435;28;20393;-56
2022/10/20 03:11:03;;;;;;;3.53;2.38;;;2.40;99.90;;;;;;5029302;28;20030;-56
2022/10/20 03:13:29;;;;;;;6.38;2.75;;;2.40;99.90;;;;;;5008754;28;20029;-56
2022/10/20 03:15:54;;;;;;;4.32;2.60;;;2.30;99.90;;;;;;5029069;28;20033;-54
2022/10/20 03:18:20;;;;;;;4.00;2.58;;;2.30;99.90;;;;;;5008640;28;20553;-54
2022/10/20 03:20:45;;;;;;;8.25;2.78;;;2.30;99.90;;;;;;5028476;28;20029;-54
2022/10/20 03:23:11;;;;;;;8.85;3.25;;;2.30;99.90;;;;;;5011032;28;20034;-54
2022/10/20 03:25:36;;;;;;;6.68;3.17;;;2.30;99.90;;;;;;5029660;28;20393;-54
2022/10/20 03:28:02;;;;;;;6.95;2.50;;;2.40;99.90;;;;;;5008696;28;20030;-56
2022/10/20 03:30:27;;;;;;;5.07;3.20;;;2.40;99.90;;;;;;5028763;28;20566;-54
2022/10/20 03:32:54;;;;;;;8.00;3.22;;;2.40;99.90;;;;;;5008496;28;20030;-56
2022/10/20 03:35:19;;;;;;;5.47;2.95;;;2.40;99.90;;;;;;5044441;28;20385;-56
2022/10/20 03:37:45;;;;;;;6.28;2.65;;;2.50;99.90;;;;;;5008313;28;20042;-56
2022/10/20 03:40:10;;;;;;;4.75;3.05;;;2.50;99.90;;;;;;5028650;28;20400;-55
2022/10/20 03:42:36;;;;;;;5.90;3.65;;;2.50;99.90;;;;;;5016663;28;20034;-55
2022/10/20 03:45:01;;;;;;;6.07;3.13;;;2.50;99.90;;;;;;5010002;28;20486;-56
2022/10/20 03:47:27;;;;;;;10.43;4.80;;;2.50;99.90;;;;;;5026456;28;20704;-55
2022/10/20 03:49:52;;;;;;;8.68;4.93;;;2.60;99.90;;;;;;5010148;28;20099;-56
2022/10/20 03:52:18;;;;;;;5.93;3.85;;;2.60;99.90;;;;;;5026539;28;20056;-55
2022/10/20 03:54:43;;;;;;;5.35;3.58;;;2.60;99.90;;;;;;5029339;28;20496;-55
2022/10/20 03:57:09;;;;;;;7.43;3.22;;;2.60;99.90;;;;;;5013706;28;20026;-57
2022/10/20 03:59:34;;;;;;;5.57;3.47;;;2.60;99.90;;;;;;5007390;28;20080;-57
2022/10/20 04:02:00;;;;;;;8.50;3.45;;;2.60;99.90;;;;;;5011051;28;20070;-55
2022/10/20 04:04:25;;;;;;;6.68;3.65;;;2.60;99.90;;;;;;5011118;28;20057;-56
2022/10/20 04:06:51;;;;;;;8.85;4.68;;;2.60;99.90;;;;;;5008511;28;20061;-57
2022/10/20 04:09:16;;;;;;;9.02;3.47;;;2.60;99.90;;;;;;5027724;28;20116;-54
2022/10/20 04:11:41;;;;;;;5.05;3.25;;;2.60;99.90;;;;;;5008595;28;20029;-56
2022/10/20 04:14:07;;;;;;;8.45;3.28;;;2.50;99.90;;;;;;5027957;28;20745;-55
2022/10/20 04:16:32;;;;;;;4.93;2.55;;;2.50;99.90;;;;;;5006187;28;20076;-56
2022/10/20 04:18:58;;;;;;;4.85;3.15;;;2.40;99.90;;;;;;5027878;28;20028;-55
2022/10/20 04:21:25;;;;;;;4.82;2.70;;;2.50;99.90;;;;;;5008240;28;20100;-54
2022/10/20 04:23:50;;;;;;;5.22;3.08;;;2.40;99.90;;;;;;5003285;28;20029;-54
2022/10/20 04:26:16;;;;;;;5.78;2.40;;;2.40;99.90;;;;;;5027254;28;20032;-57
2022/10/20 04:28:42;;;;;;;4.60;3.05;;;2.40;99.90;;;;;;5006820;28;20690;-53
2022/10/20 04:31:08;;;;;;;5.95;3.15;;;2.40;99.90;;;;;;5026850;28;20034;-53
2022/10/20 04:33:34;;;;;;;4.30;3.00;;;2.40;99.90;;;;;;5008186;28;20049;-53
2022/10/20 04:36:02;;;;;;;4.15;2.78;;;2.40;99.90;;;;;;5030828;28;20124;-54
2022/10/20 04:38:32;;;;;;;5.53;3.05;;;2.40;99.90;;;;;;5010315;28;20053;-55
2022/10/20 04:40:59;;;;;;;7.28;3.55;;;2.40;99.90;;;;;;5031251;28;20026;-54
2022/10/20 04:43:25;;;;;;;6.25;3.75;;;2.40;99.90;;;;;;5009826;28;20034;-50
2022/10/20 04:45:52;;;;;;;5.45;3.50;;;2.40;99.90;;;;;;5030789;28;20026;-53
2022/10/20 04:48:18;;;;;;;6.22;3.50;;;2.30;99.90;;;;;;5010360;28;20058;-50
2022/10/20 04:50:44;;;;;;;9.13;3.78;;;2.30;99.90;;;;;;5046773;28;20056;-50
2022/10/20 04:53:10;;;;;;;8.77;4.28;;;2.40;99.90;;;;;;5010704;28;20442;-53
2022/10/20 04:55:35;;;;;;;4.45;2.85;;;2.40;99.90;;;;;;5030549;28;20040;-55
2022/10/20 04:58:01;;;;;;;4.50;2.75;;;2.40;99.90;;;;;;5010243;28;20030;-53
2022/10/20 05:00:28;;;;;;;6.45;4.10;;;2.40;99.90;;;;;;5030568;28;20052;-52
2022/10/20 05:02:54;;;;;;;5.70;2.60;;;2.40;99.90;;;;;;5009861;28;20042;-49
2022/10/20 05:05:19;;;;;;;5.82;3.13;;;2.40;99.90;;;;;;5030610;28;20041;-53
2022/10/20 05:07:45;;;;;;;4.18;3.00;;;2.40;99.90;;;;;;5018810;28;20022;-51
2022/10/20 05:10:10;;;;;;;6.88;3.78;;;2.40;99.90;;;;;;5010565;28;20036;-52
2022/10/20 05:12:36;;;;;;;7.57;3.75;;;2.40;99.90;;;;;;5028503;28;20057;-49
2022/10/20 05:15:01;;;;;;;7.13;3.88;;;2.40;99.90;;;;;;5011937;28;20058;-53
2022/10/20 05:17:30;;;;;;;6.22;3.55;;;2.40;99.90;;;;;;5020879;28;20026;-52
2022/10/20 05:19:55;;;;;;;6.15;3.53;;;2.40;99.90;;;;;;5029979;28;20075;-49
2022/10/20 05:22:21;;;;;;;6.43;3.85;;;2.50;99.90;;;;;;5013853;28;20033;-52
2022/10/20 05:24:46;;;;;;;7.25;3.90;;;2.50;99.90;;;;;;5024891;28;20029;-49
2022/10/20 05:27:12;;;;;;;7.68;3.95;;;2.50;99.90;;;;;;5013679;28;20025;-49
2022/10/20 05:29:37;;;;;;;6.97;3.70;;;2.50;99.90;;;;;;5030907;28;20049;-52
2022/10/20 05:32:03;;;;;;;6.88;3.65;;;2.50;99.90;;;;;;5012010;28;20069;-51
2022/10/20 05:34:29;;;;;;;6.60;3.42;;;2.50;99.90;;;;;;5030791;28;20105;-49
2022/10/20 05:36:54;;;;;;;8.57;3.70;;;2.60;99.90;;;;;;5014005;28;20053;-50
2022/10/20 05:39:20;;;;;;;10.80;4.10;;;2.60;99.90;;;;;;5010560;28;20022;-50
2022/10/20 05:41:45;;;;;;;10.05;4.53;;;2.70;99.90;;;;;;5029791;28;20065;-47
2022/10/20 05:44:11;;;;;;;7.65;3.63;;;2.70;99.90;;;;;;5028033;28;20092;-49
2022/10/20 05:46:40;;;;;;;7.97;3.85;;;2.70;99.90;;;;;;5011396;28;20623;-47
2022/10/20 05:49:05;;;;;;;6.70;4.18;;;2.80;99.90;;;;;;5009255;28;20026;-47
2022/10/20 05:51:34;;;;;;;9.20;3.67;;;2.80;99.90;;;;;;5006394;28;20030;-47
2022/10/20 05:53:59;;;;;;;5.80;4.00;;;2.80;99.90;;;;;;5009838;28;20120;-53
2022/10/20 05:56:27;;;;;;;6.13;3.88;;;2.80;99.90;;;;;;5030201;28;20174;-47
2022/10/20 05:58:53;;;;;;;4.43;3.15;;;2.90;99.90;;;;;;5009568;28;20033;-47
2022/10/20 06:01:23;;;;;;;7.00;4.18;;;2.90;99.90;;;;;;5029944;28;20060;-49
2022/10/20 06:03:50;;;;;;;8.80;3.38;;;2.90;99.90;;;;;;5009605;28;20029;-46
2022/10/20 06:06:17;;;;;;;6.10;3.50;;;2.90;99.90;;;;;;5030333;28;20029;-48
2022/10/20 06:08:43;;;;;;;5.28;3.55;;;3.00;99.90;;;;;;5009432;28;20100;-47
2022/10/20 06:11:11;;;;;;;7.93;4.13;;;3.00;99.90;;;;;;5045860;28;20033;-47
2022/10/20 06:13:36;;;;;;;9.10;3.90;;;3.10;99.90;;;;;;5007930;28;20112;-49
2022/10/20 06:16:06;;;;;;;7.57;3.75;;;3.10;99.90;;;;;;5029806;28;20466;-47
2022/10/20 06:18:32;;;;;;;7.82;4.63;;;3.20;99.90;;;;;;5008927;28;20474;-47
2022/10/20 06:21:02;;;;;;;6.05;3.55;;;3.20;99.90;;;;;;5029851;28;20032;-48
2022/10/20 06:23:28;;;;;;;5.65;2.92;;;3.30;99.90;;;;;;5008880;28;20021;-47
2022/10/20 06:25:53;;;;;;;8.30;4.65;;;3.40;99.90;;;;;;5011215;28;20896;-48
2022/10/20 06:28:19;;;;;;;7.07;3.92;;;3.50;99.90;;;;;;5016526;28;20409;-48
2022/10/20 06:30:44;;;;;;;8.48;4.32;;;3.70;99.90;;;;;;5029564;28;20030;-50
2022/10/20 06:33:11;;;;;;;8.20;4.18;;;4.00;99.90;;;;;;5009190;28;20672;-48
2022/10/20 06:35:37;;;;;;;7.38;3.90;;;4.50;99.90;;;;;;5029533;28;20113;-48
2022/10/20 06:38:03;;;;;;;8.20;4.10;;;5.00;99.90;;;;;;5008856;28;20132;-50
2022/10/20 06:40:28;;;;;;;7.93;3.75;;;5.20;99.90;;;;;;5029303;28;20685;-49
2022/10/20 06:42:54;;;;;;;8.25;3.90;;;5.50;99.90;;;;;;5008823;28;20467;-51
2022/10/20 06:45:19;;;;;;;7.93;4.25;;;5.70;99.90;;;;;;5010152;28;20033;-51
2022/10/20 06:47:45;;;;;;;6.55;3.80;;;5.90;99.90;;;;;;5021329;28;20523;-49
2022/10/20 06:50:10;;;;;;;7.75;3.90;;;6.00;99.90;;;;;;5042235;28;20034;-48
2022/10/20 06:52:35;;;;;;;5.78;4.03;;;6.00;99.90;;;;;;5022548;28;20038;-49
2022/10/20 06:55:01;;;;;;;7.97;4.18;;;6.00;99.90;;;;;;5009509;28;20061;-48
2022/10/20 06:57:29;;;;;;;6.50;4.18;;;6.00;99.90;;;;;;5023738;28;20092;-47
2022/10/20 06:59:54;;;;;;;7.40;4.55;;;5.90;99.90;;;;;;5010113;28;20053;-50
2022/10/20 07:02:20;;;;;;;12.60;4.30;;;5.90;99.90;;;;;;5024653;28;20064;-51
2022/10/20 07:04:48;;;;;;;7.93;4.50;;;5.90;99.90;;;;;;5009908;28;20029;-48
2022/10/20 07:07:14;;;;;;;7.63;4.10;;;5.90;99.90;;;;;;5026003;28;20525;-49
2022/10/20 07:09:39;;;;;;;8.10;4.47;;;5.90;99.90;;;;;;5009932;28;20041;-52
2022/10/20 07:12:05;;;;;;;8.70;4.78;;;5.90;99.90;;;;;;5028702;28;20408;-53
2022/10/20 07:14:30;;;;;;;8.27;4.60;;;5.90;99.90;;;;;;4990171;28;20516;-47
2022/10/20 07:16:56;;;;;;;12.30;5.38;;;5.90;99.90;;;;;;5028077;28;20037;-50
2022/10/20 07:19:21;;;;;;;11.75;5.32;;;5.90;99.90;;;;;;5008359;28;20057;-50
2022/10/20 07:21:47;;;;;;;10.60;5.55;;;6.00;99.90;;;;;;5028551;28;20060;-51
2022/10/20 07:24:13;;;;;;;8.02;5.30;;;6.00;99.90;;;;;;5005154;28;20034;-50
2022/10/20 07:26:40;;;;;;;9.95;4.75;;;6.00;99.90;;;;;;5028625;28;20025;-49
2022/10/20 07:29:06;;;;;;;7.78;4.88;;;6.10;99.90;;;;;;5008106;28;20034;-47
2022/10/20 07:31:37;;;;;;;8.02;4.32;;;6.20;99.90;;;;;;5028442;28;20534;-49
2022/10/20 07:34:05;;;;;;;6.78;4.28;;;6.40;99.90;;;;;;5003451;28;20072;-48
2022/10/20 07:36:33;;;;;;;7.55;4.47;;;6.60;99.90;;;;;;5024483;28;20042;-49
2022/10/20 07:39:00;;;;;;;6.57;4.72;;;6.90;99.90;;;;;;5007629;28;20034;-52
2022/10/20 07:41:26;;;;;;;8.50;4.30;;;7.20;99.90;;;;;;5028331;28;20041;-52
2022/10/20 07:43:53;;;;;;;8.38;4.57;;;7.50;99.90;;;;;;5007844;28;20030;-47
2022/10/20 07:46:19;;;;;;;10.20;4.18;;;7.80;99.90;;;;;;5027274;28;20088;-50
2022/10/20 07:48:45;;;;;;;10.95;5.25;;;8.10;99.90;;;;;;5007857;28;20049;-48
2022/10/20 07:51:29;;;;;;;9.13;4.85;;;8.30;99.90;;;;;;5028163;28;20116;-49
2022/10/20 07:53:56;;;;;;;7.28;5.28;;;8.40;99.90;;;;;;5001479;28;20026;-49
2022/10/20 07:56:22;;;;;;;11.20;5.25;;;8.40;99.90;;;;;;5028192;28;20038;-49
2022/10/20 07:58:48;;;;;;;8.95;4.68;;;8.50;99.90;;;;;;5007743;28;20096;-51
2022/10/20 08:01:14;;;;;;;8.25;5.88;;;8.80;99.90;;;;;;5027941;28;20029;-49
2022/10/20 08:03:39;;;;;;;6.78;3.95;;;8.80;99.90;;;;;;5007682;28;20068;-49
2022/10/20 08:06:05;;;;;;;9.10;5.00;;;8.90;99.90;;;;;;5043710;28;20036;-47
2022/10/20 08:08:31;;;;;;;7.45;5.05;;;9.00;99.90;;;;;;5007232;28;20084;-47
2022/10/20 08:10:58;;;;;;;8.98;5.20;;;9.10;99.90;;;;;;5028034;28;20029;-60
2022/10/20 08:13:24;;;;;;;9.30;5.68;;;9.30;99.90;;;;;;5007429;28;20036;-50
2022/10/20 08:15:50;;;;;;;8.20;4.28;;;9.40;99.90;;;;;;5027931;28;20751;-49
2022/10/20 08:18:15;;;;;;;7.15;4.93;;;9.50;99.90;;;;;;5007447;28;20109;-48
2022/10/20 08:20:41;;;;;;;11.52;5.38;;;9.70;99.90;;;;;;5027656;28;20121;-50
2022/10/20 08:23:07;;;;;;;8.00;4.78;;;9.60;99.90;;;;;;5004955;28;20061;-50
2022/10/20 08:25:32;;;;;;;8.80;5.07;;;9.70;99.90;;;;;;5008511;28;20478;-53
2022/10/20 08:27:58;;;;;;;11.52;5.22;;;9.70;99.90;;;;;;5020558;28;20022;-51
2022/10/20 08:30:23;;;;;;;7.80;5.38;;;9.80;99.90;;;;;;5008589;28;20647;-50
2022/10/20 08:32:52;;;;;;;9.02;5.15;;;9.90;99.90;;;;;;5022195;28;20041;-49
2022/10/20 08:35:19;;;;;;;9.20;4.95;;;10.10;99.90;;;;;;5008616;28;20558;-47
2022/10/20 08:37:44;;;;;;;7.00;4.55;;;10.30;99.90;;;;;;5022677;28;20054;-51
2022/10/20 08:40:15;;;;;;;8.43;5.40;;;10.50;99.90;;;;;;5008568;28;20189;-49
2022/10/20 08:42:44;;;;;;;8.30;5.88;;;10.60;99.90;;;;;;4989272;28;20038;-48
2022/10/20 08:45:21;;;;;;;7.18;5.28;;;10.70;98.50;;;;;;5008465;28;20030;-47
2022/10/20 08:47:49;;;;;;;9.77;6.57;;;10.80;98.30;;;;;;4990081;28;20030;-50
2022/10/20 08:50:16;;;;;;;13.45;5.78;;;10.80;97.10;;;;;;5008354;28;20379;-51
2022/10/20 08:52:43;;;;;;;11.70;6.40;;;10.80;99.90;;;;;;5023469;28;20033;-47
2022/10/20 08:55:28;;;;;;;8.20;5.72;;;10.80;97.80;;;;;;5008329;28;20025;-50
2022/10/20 08:58:13;;;;;;;13.88;6.50;;;10.90;98.60;;;;;;4990384;28;20025;-49
2022/10/20 09:00:39;;;;;;;8.85;5.13;;;10.90;97.10;;;;;;5008297;28;20087;-49
2022/10/20 09:03:21;;;;;;;8.82;6.20;;;11.00;97.60;;;;;;5020336;28;20498;-47
2022/10/20 09:05:53;;;;;;;9.63;5.47;;;10.90;95.70;;;;;;5008358;28;20117;-52
2022/10/20 09:08:21;;;;;;;8.32;5.35;;;11.00;95.50;;;;;;4993543;28;20029;-48
2022/10/20 09:10:48;;;;;;;7.78;5.07;;;11.10;96.50;;;;;;5008286;28;20025;-47
2022/10/20 09:13:23;;;;;;;9.95;5.20;;;11.20;96.20;;;;;;5019576;28;20022;-50
2022/10/20 09:16:02;;;;;;;9.90;5.20;;;11.20;95.40;;;;;;5008374;28;20056;-51
2022/10/20 09:18:28;;;;;;;10.57;5.50;;;11.30;93.70;;;;;;4994868;28;20034;-47
2022/10/20 09:21:03;;;;;;;8.40;5.35;;;11.30;93.60;;;;;;5031063;28;20025;-48
2022/10/20 09:23:38;;;;;;;6.70;4.72;;;11.40;93.20;;;;;;5000003;28;20054;-52
2022/10/20 09:26:12;;;;;;;8.15;5.10;;;11.40;93.50;;;;;;5031315;28;20630;-49
2022/10/20 09:28:37;;;;;;;8.95;4.78;;;11.50;93.60;;;;;;4998907;28;20112;-50
2022/10/20 09:31:18;;;;;;;9.48;5.38;;;11.60;94.70;;;;;;5030697;28;20113;-49
2022/10/20 09:33:46;;;;;;;8.40;5.00;;;11.70;92.70;;;;;;4999700;28;20034;-52
2022/10/20 09:36:13;;;;;;;8.68;5.13;;;11.80;91.30;;;;;;5029455;28;20033;-51
2022/10/20 09:38:45;;;;;;;9.77;5.40;;;11.70;91.40;;;;;;5009640;28;20034;-49
2022/10/20 09:41:21;;;;;;;9.90;5.40;;;11.80;91.30;;;;;;5030907;28;20611;-50
2022/10/20 09:44:15;;;;;;;8.85;4.82;;;11.80;89.70;;;;;;4998513;28;20033;-49
2022/10/20 09:46:47;;;;;;;9.20;4.78;;;11.70;89.30;;;;;;4991656;28;20034;-48
2022/10/20 09:49:32;;;;;;;10.30;4.63;;;11.70;91.90;;;;;;5015891;28;20030;-51
2022/10/20 09:52:00;;;;;;;8.48;4.70;;;11.70;90.30;;;;;;5030937;28;20026;-50
2022/10/20 09:54:26;;;;;;;6.63;4.00;;;11.70;89.20;;;;;;5009679;28;20057;-47
2022/10/20 09:57:01;;;;;;;8.55;4.50;;;11.80;91.80;;;;;;5030381;28;20033;-47
2022/10/20 09:59:39;;;;;;;10.80;4.67;;;11.80;90.90;;;;;;5004412;28;20520;-47
2022/10/20 10:02:13;;;;;;;9.70;5.00;;;11.80;90.20;;;;;;4991430;28;20030;-49
2022/10/20 10:04:41;;;;;;;7.22;4.15;;;11.80;90.50;;;;;;5011604;28;20072;-47
2022/10/20 10:07:25;;;;;;;6.53;4.22;;;11.70;90.10;;;;;;5030383;28;20491;-50
2022/10/20 10:09:56;;;;;;;6.70;3.70;;;11.70;90.10;;;;;;5009270;28;20030;-53
2022/10/20 10:12:23;;;;;;;6.47;3.90;;;11.80;89.90;;;;;;4991359;28;20045;-51
2022/10/20 10:14:58;;;;;;;6.00;3.03;;;11.80;91.60;;;;;;5009391;28;20034;-52
2022/10/20 10:17:31;;;;;;;6.65;3.75;;;11.90;90.30;;;;;;4991288;28;20063;-47
2022/10/20 10:19:57;;;;;;;6.47;3.72;;;11.80;87.90;;;;;;5009671;28;20080;-51
2022/10/20 10:22:23;;;;;;;6.65;3.42;;;11.80;90.60;;;;;;5027908;28;20025;-50
2022/10/20 10:24:49;;;;;;;8.32;3.10;;;11.80;91.70;;;;;;5006453;28;20072;-50
2022/10/20 10:27:22;;;;;;;5.90;3.42;;;11.80;90.30;;;;;;5029735;28;20647;-54
2022/10/20 10:29:48;;;;;;;6.20;3.72;;;11.70;89.60;;;;;;5003565;28;20034;-47
2022/10/20 10:32:26;;;;;;;5.95;3.10;;;11.70;86.90;;;;;;5029001;28;20025;-52
2022/10/20 10:35:13;;;;;;;7.45;3.05;;;11.70;88.90;;;;;;5008824;28;20022;-50
2022/10/20 10:37:41;;;;;;;4.85;2.97;;;11.80;90.50;;;;;;5016352;28;20200;-51
2022/10/20 10:40:17;;;;;;;5.13;3.33;;;11.80;89.90;;;;;;5008744;28;20128;-47
2022/10/20 10:43:05;;;;;;;7.20;3.15;;;11.80;90.00;;;;;;4990712;28;20114;-51
2022/10/20 10:45:43;;;;;;;4.93;3.20;;;11.90;86.00;;;;;;4990668;28;20030;-48
2022/10/20 10:48:47;;;;;;;5.15;2.90;;;11.90;84.30;;;;;;4991616;28;20537;-50
2022/10/20 10:51:38;;;;;;;6.47;3.15;;;11.90;87.30;;;;;;5029158;28;20068;-47
2022/10/20 10:54:15;;;;;;;4.50;2.90;;;12.00;84.90;;;;;;4998598;28;20065;-50
2022/10/20 10:56:50;;;;;;;6.22;3.22;;;12.10;85.10;;;;;;5029453;28;20078;-47
2022/10/20 10:59:39;;;;;;;4.82;2.97;;;12.10;82.70;;;;;;4999869;28;20038;-50
2022/10/20 11:02:45;;;;;;;4.88;2.55;;;12.10;82.40;;;;;;4990345;28;20138;-48
2022/10/20 11:05:32;;;;;;;6.85;3.50;;;12.20;81.00;;;;;;5007493;28;20034;-48
2022/10/20 11:08:03;;;;;;;;;;;12.20;79.30;;;;;;4989533;28;20082;-49
2022/10/20 11:10:53;;;;;;;5.82;2.72;;;12.30;80.70;;;;;;5009918;28;19909;-49
2022/10/20 11:13:26;;;;;;;6.30;3.58;;;12.30;82.50;;;;;;4991751;28;20038;-47
2022/10/20 11:16:17;;;;;;;6.72;3.45;;;12.40;80.80;;;;;;5009883;28;20022;-47
2022/10/20 11:19:25;;;;;;;6.18;3.55;;;12.40;77.10;;;;;;4982168;28;20038;-47
2022/10/20 11:22:09;;;;;;;11.70;3.83;;;12.30;77.10;;;;;;4990002;28;20552;-49
2022/10/20 11:25:27;;;;;;;4.28;2.85;;;12.30;75.60;;;;;;4998304;28;20413;-47
2022/10/20 11:27:55;;;;;;;8.00;3.47;;;12.40;75.90;;;;;;4948535;29;20035;-49
2022/10/20 11:30:21;;;;;;;5.80;3.33;;;12.40;75.40;;;;;;4994490;28;20037;-52
2022/10/20 11:33:13;;;;;;;4.05;2.55;;;12.50;73.60;;;;;;5028608;28;20041;-47
2022/10/20 11:35:50;;;;;;;3.95;2.33;;;12.50;71.60;;;;;;4989811;28;20486;-47
2022/10/20 11:38:30;;;;;;;7.47;2.72;;;12.50;72.20;;;;;;4989956;28;20050;-49
2022/10/20 11:41:19;;;;;;;4.05;2.67;;;12.50;71.40;;;;;;5009296;28;20496;-48
2022/10/20 11:44:03;;;;;;;5.55;2.78;;;12.50;68.80;;;;;;4993756;28;20040;-47
2022/10/20 11:46:56;;;;;;;7.80;2.72;;;12.50;68.80;;;;;;5026928;28;20048;-52
2022/10/20 11:49:22;;;;;;;2.90;1.95;;;12.60;69.70;;;;;;4998721;28;20146;-46
2022/10/20 11:52:17;;;;;;;4.40;2.38;;;12.60;70.20;;;;;;5028373;28;20434;-47
2022/10/20 11:55:17;;;;;;;4.57;2.40;;;12.70;69.30;;;;;;5001162;28;20025;-47
2022/10/20 11:58:12;;;;;;;4.68;2.10;;;12.70;68.30;;;;;;4989579;28;20474;-47
2022/10/20 12:01:02;;;;;;;6.20;2.20;;;12.80;70.40;;;;;;4989475;28;20026;-47
2022/10/20 12:03:33;;;;;;;3.38;2.45;;;12.90;71.70;;;;;;4990593;28;20041;-47
2022/10/20 12:06:16;;;;;;;4.57;2.28;;;13.00;66.70;;;;;;5009289;28;20064;-47
2022/10/20 12:09:19;;;;;;;3.70;2.13;;;13.10;64.70;;;;;;4992355;28;20049;-46
2022/10/20 12:12:10;;;;;;;5.88;2.55;;;13.20;65.40;;;;;;5027952;28;20060;-50
2022/10/20 12:14:43;;;;;;;9.93;2.90;;;13.20;63.90;;;;;;4999513;28;20032;-47
2022/10/20 12:17:19;;;;;;;3.90;2.45;;;13.20;63.90;;;;;;5028617;28;20033;-46
2022/10/20 12:19:47;;;;;;;;;;;13.20;63.00;;;;;;5001121;28;20105;-47
2022/10/20 12:22:13;;;;;;;4.53;2.42;;;13.20;63.50;;;;;;5028120;28;19940;-51
2022/10/20 12:24:49;;;;;;;8.23;2.92;;;13.20;65.60;;;;;;5004600;28;20425;-53
2022/10/20 12:27:17;;;;;;;;;;;13.30;67.50;;;;;;5004105;28;20034;-51
2022/10/20 12:29:42;;;;;;;5.97;2.88;;;13.30;62.70;;;;;;5009666;28;20395;-48
2022/10/20 12:32:33;;;;;;;4.63;2.50;;;13.20;63.60;;;;;;5007960;28;20026;-47
2022/10/20 12:35:02;;;;;;;8.18;3.63;;;13.20;63.80;;;;;;5000535;28;20030;-49
2022/10/20 12:37:31;;;;;;;4.82;3.05;;;13.20;64.70;;;;;;5026387;28;20413;-50
2022/10/20 12:40:06;;;;;;;6.22;2.67;;;13.20;65.00;;;;;;5005554;28;20069;-52
2022/10/20 12:42:36;;;;;;;9.68;3.40;;;13.10;65.80;;;;;;5026431;28;20400;-49
2022/10/20 12:45:05;;;;;;;5.90;3.13;;;13.10;64.00;;;;;;5009092;28;20044;-49
2022/10/20 12:47:33;;;;;;;5.45;3.03;;;13.10;64.20;;;;;;5008686;28;20045;-50
2022/10/20 12:50:00;;;;;;;5.22;3.72;;;13.10;64.70;;;;;;5012563;28;20111;-49
2022/10/20 12:52:36;;;;;;;3.92;2.83;;;13.10;64.30;;;;;;5028232;28;20112;-49
2022/10/20 12:55:07;;;;;;;4.93;2.88;;;13.10;63.50;;;;;;5010197;28;20034;-50
2022/10/20 12:57:40;;;;;;;4.78;2.92;;;13.10;63.90;;;;;;4993253;28;20034;-53
2022/10/20 13:00:26;;;;;;;3.58;2.35;;;13.00;62.10;;;;;;5006188;28;20461;-50
2022/10/20 13:02:54;;;;;;;8.18;2.53;;;13.00;63.10;;;;;;4993155;28;20046;-50
2022/10/20 13:05:43;;;;;;;5.32;2.53;;;12.90;63.90;;;;;;5013297;28;20087;-51
2022/10/20 13:08:17;;;;;;;5.80;2.20;;;12.90;65.30;;;;;;5031903;28;20037;-51
2022/10/20 13:10:43;;;;;;;4.43;2.72;;;13.00;66.90;;;;;;5010945;28;20032;-48
2022/10/20 13:13:08;;;;;;;4.65;2.40;;;13.00;63.90;;;;;;5031582;28;20104;-49